createdAt,value
2016-09-23T00:00:43.277Z,0
2016-09-23T00:01:43.617Z,0
2016-09-23T00:02:42.962Z,0
2016-09-23T00:03:42.524Z,0
2016-09-23T00:04:42.914Z,0
2016-09-23T00:05:42.895Z,0
2016-09-23T00:06:42.161Z,0
2016-09-23T00:07:42.424Z,0
2016-09-23T00:08:42.683Z,0
2016-09-23T00:09:42.665Z,0
2016-09-23T00:10:42.307Z,0
2016-09-23T00:11:42.231Z,0
2016-09-23T00:12:42.509Z,0
2016-09-23T00:13:42.453Z,0
2016-09-23T00:14:41.993Z,0
2016-09-23T00:15:41.952Z,0
2016-09-23T00:16:41.870Z,0
2016-09-23T00:17:42.486Z,0
2016-09-23T00:18:41.905Z,0
2016-09-23T00:19:41.555Z,0
2016-09-23T00:20:41.807Z,0
2016-09-23T00:21:41.760Z,0
2016-09-23T00:22:41.925Z,0
2016-09-23T00:23:41.347Z,0
2016-09-23T00:24:41.610Z,0
2016-09-23T00:25:41.268Z,0
2016-09-23T00:26:41.259Z,0
2016-09-23T00:27:41.493Z,0
2016-09-23T00:28:42.168Z,0
2016-09-23T00:29:41.894Z,0
2016-09-23T00:30:41.631Z,0
2016-09-23T00:31:41.579Z,0
2016-09-23T00:32:40.931Z,0
2016-09-23T00:33:41.171Z,0
2016-09-23T00:34:40.817Z,0
2016-09-23T00:35:41.081Z,0
2016-09-23T00:36:41.535Z,0
2016-09-23T00:37:40.984Z,0
2016-09-23T00:38:41.262Z,0
2016-09-23T00:39:40.826Z,0
2016-09-23T00:40:41.101Z,0
2016-09-23T00:41:41.031Z,0
2016-09-23T00:42:40.775Z,0
2016-09-23T00:43:40.708Z,0
2016-09-23T00:44:40.337Z,0
2016-09-23T00:45:40.671Z,0
2016-09-23T00:46:40.861Z,0
2016-09-23T00:47:41.020Z,0
2016-09-23T00:48:40.457Z,0
2016-09-23T00:49:40.703Z,0
2016-09-23T00:50:40.367Z,0
2016-09-23T00:51:40.817Z,0
2016-09-23T00:52:55.174Z,0
2016-09-23T00:53:40.516Z,0
2016-09-23T00:54:40.504Z,0
2016-09-23T00:55:39.876Z,0
2016-09-23T00:56:40.424Z,0
2016-09-23T00:57:40.395Z,0
2016-09-23T00:58:39.952Z,0
2016-09-23T00:59:40.272Z,0
2016-09-23T01:00:40.389Z,0
2016-09-23T01:01:40.039Z,0
2016-09-23T01:02:40.295Z,0
2016-09-23T01:03:39.925Z,0
2016-09-23T01:04:39.384Z,0
2016-09-23T01:05:38.711Z,0
2016-09-23T01:06:40.097Z,0
2016-09-23T01:07:39.857Z,0
2016-09-23T01:08:39.695Z,0
2016-09-23T01:09:39.443Z,0
2016-09-23T01:10:39.175Z,0
2016-09-23T01:11:39.353Z,0
2016-09-23T01:12:39.029Z,0
2016-09-23T01:13:39.288Z,0
2016-09-23T01:14:39.409Z,0
2016-09-23T01:15:38.883Z,0
2016-09-23T01:16:39.446Z,0
2016-09-23T01:17:39.618Z,0
2016-09-23T01:18:39.079Z,0
2016-09-23T01:19:39.002Z,0
2016-09-23T01:20:38.612Z,0
2016-09-23T01:21:39.397Z,0
2016-09-23T01:22:39.132Z,0
2016-09-23T01:23:38.528Z,0
2016-09-23T01:24:38.753Z,0
2016-09-23T01:25:38.697Z,0
2016-09-23T01:26:38.834Z,0
2016-09-23T01:27:39.096Z,0
2016-09-23T01:28:38.852Z,0
2016-09-23T01:29:38.654Z,0
2016-09-23T01:30:38.952Z,0
2016-09-23T01:31:38.681Z,0
2016-09-23T01:32:38.343Z,0
2016-09-23T01:33:38.297Z,0
2016-09-23T01:34:38.775Z,0
2016-09-23T01:35:38.165Z,0
2016-09-23T01:36:39.355Z,0
2016-09-23T01:37:38.301Z,0
2016-09-23T01:38:38.057Z,0
2016-09-23T01:39:37.690Z,0
2016-09-23T01:40:37.948Z,0
2016-09-23T01:41:37.620Z,0
2016-09-23T01:42:38.164Z,0
2016-09-23T01:43:38.119Z,0
2016-09-23T01:44:38.088Z,0
2016-09-23T01:45:38.079Z,0
2016-09-23T01:46:37.876Z,0
2016-09-23T01:47:37.928Z,0
2016-09-23T01:48:37.279Z,0
2016-09-23T01:49:37.915Z,0
2016-09-23T01:50:38.007Z,0
2016-09-23T01:51:37.164Z,0
2016-09-23T01:52:37.870Z,0
2016-09-23T01:53:37.331Z,0
2016-09-23T01:54:37.779Z,0
2016-09-23T01:55:36.915Z,0
2016-09-23T01:56:37.173Z,0
2016-09-23T01:57:37.652Z,0
2016-09-23T01:58:37.591Z,0
2016-09-23T01:59:36.722Z,0
2016-09-23T02:00:37.318Z,0
2016-09-23T02:01:36.640Z,0
2016-09-23T02:02:37.441Z,0
2016-09-23T02:03:37.121Z,0
2016-09-23T02:04:36.481Z,0
2016-09-23T02:05:37.242Z,0
2016-09-23T02:06:37.020Z,0
2016-09-23T02:07:37.152Z,0
2016-09-23T02:08:36.889Z,0
2016-09-23T02:09:36.959Z,0
2016-09-23T02:10:37.005Z,0
2016-09-23T02:11:36.126Z,0
2016-09-23T02:12:37.312Z,0
2016-09-23T02:13:36.179Z,0
2016-09-23T02:14:35.759Z,0
2016-09-23T02:15:36.246Z,0
2016-09-23T02:16:36.516Z,0
2016-09-23T02:17:36.564Z,0
2016-09-23T02:18:36.785Z,0
2016-09-23T02:19:36.070Z,0
2016-09-23T02:20:36.422Z,0
2016-09-23T02:21:36.362Z,0
2016-09-23T02:22:35.818Z,0
2016-09-23T02:23:36.620Z,0
2016-09-23T02:24:35.737Z,0
2016-09-23T02:25:35.784Z,0
2016-09-23T02:26:35.706Z,0
2016-09-23T02:27:35.868Z,0
2016-09-23T02:28:36.109Z,0
2016-09-23T02:29:35.764Z,0
2016-09-23T02:30:34.921Z,0
2016-09-23T02:31:35.187Z,0
2016-09-23T02:32:35.966Z,0
2016-09-23T02:33:35.690Z,0
2016-09-23T02:34:36.057Z,0
2016-09-23T02:35:35.517Z,0
2016-09-23T02:36:36.070Z,0
2016-09-23T02:37:34.934Z,0
2016-09-23T02:38:35.149Z,0
2016-09-23T02:39:35.132Z,0
2016-09-23T02:40:35.079Z,0
2016-09-23T02:41:34.696Z,0
2016-09-23T02:42:35.460Z,0
2016-09-23T02:43:35.201Z,0
2016-09-23T02:44:34.856Z,0
2016-09-23T02:45:35.382Z,0
2016-09-23T02:46:34.140Z,0
2016-09-23T02:47:34.714Z,0
2016-09-23T02:48:34.653Z,0
2016-09-23T02:49:35.014Z,0
2016-09-23T02:50:34.758Z,0
2016-09-23T02:51:34.833Z,0
2016-09-23T02:52:34.478Z,0
2016-09-23T02:53:34.959Z,0
2016-09-23T02:54:35.876Z,0
2016-09-23T02:55:34.503Z,0
2016-09-23T02:56:33.963Z,0
2016-09-23T02:57:34.303Z,0
2016-09-23T02:58:33.558Z,0
2016-09-23T02:59:34.629Z,0
2016-09-23T03:00:34.500Z,0
2016-09-23T03:01:34.333Z,0
2016-09-23T03:02:34.265Z,0
2016-09-23T03:03:34.229Z,0
2016-09-23T03:04:34.816Z,0
2016-09-23T03:05:33.573Z,0
2016-09-23T03:06:34.093Z,0
2016-09-23T03:07:34.238Z,0
2016-09-23T03:08:34.105Z,0
2016-09-23T03:09:34.154Z,0
2016-09-23T03:10:33.902Z,0
2016-09-23T03:11:32.909Z,0
2016-09-23T03:12:33.378Z,0
2016-09-23T03:13:33.458Z,0
2016-09-23T03:14:33.584Z,0
2016-09-23T03:15:33.554Z,0
2016-09-23T03:16:33.818Z,0
2016-09-23T03:17:33.460Z,0
2016-09-23T03:18:33.099Z,0
2016-09-23T03:19:33.136Z,0
2016-09-23T03:20:33.384Z,0
2016-09-23T03:21:33.568Z,0
2016-09-23T03:22:33.529Z,0
2016-09-23T03:23:33.052Z,0
2016-09-23T03:24:33.221Z,0
2016-09-23T03:25:33.171Z,0
2016-09-23T03:26:32.998Z,0
2016-09-23T03:27:33.268Z,0
2016-09-23T03:28:32.108Z,0
2016-09-23T03:29:32.877Z,0
2016-09-23T03:30:33.231Z,0
2016-09-23T03:31:32.570Z,0
2016-09-23T03:32:32.819Z,0
2016-09-23T03:33:32.767Z,0
2016-09-23T03:34:32.722Z,0
2016-09-23T03:35:32.421Z,0
2016-09-23T03:36:32.646Z,0
2016-09-23T03:37:32.280Z,0
2016-09-23T03:38:32.207Z,0
2016-09-23T03:39:31.877Z,0
2016-09-23T03:40:32.633Z,0
2016-09-23T03:41:31.495Z,0
2016-09-23T03:42:31.416Z,0
2016-09-23T03:43:32.195Z,0
2016-09-23T03:44:32.549Z,0
2016-09-23T03:45:32.222Z,0
2016-09-23T03:46:32.341Z,0
2016-09-23T03:47:32.074Z,0
2016-09-23T03:48:31.438Z,0
2016-09-23T03:49:31.921Z,0
2016-09-23T03:50:32.360Z,0
2016-09-23T03:51:31.306Z,0
2016-09-23T03:52:31.543Z,0
2016-09-23T03:53:31.403Z,0
2016-09-23T03:54:31.640Z,0
2016-09-23T03:55:31.774Z,0
2016-09-23T03:56:32.063Z,0
2016-09-23T03:57:32.201Z,0
2016-09-23T03:58:31.253Z,0
2016-09-23T03:59:31.500Z,0
2016-09-23T04:00:31.352Z,0
2016-09-23T04:01:31.131Z,0
2016-09-23T04:02:31.550Z,0
2016-09-23T04:03:31.378Z,0
2016-09-23T04:04:30.679Z,0
2016-09-23T04:05:31.219Z,0
2016-09-23T04:06:31.061Z,0
2016-09-23T04:07:30.715Z,0
2016-09-23T04:08:30.957Z,0
2016-09-23T04:09:30.425Z,0
2016-09-23T04:10:30.964Z,0
2016-09-23T04:11:30.815Z,0
2016-09-23T04:12:30.504Z,0
2016-09-23T04:13:30.267Z,0
2016-09-23T04:14:30.787Z,0
2016-09-23T04:15:30.734Z,0
2016-09-23T04:16:29.776Z,0
2016-09-23T04:17:30.361Z,0
2016-09-23T04:18:29.953Z,0
2016-09-23T04:19:29.923Z,0
2016-09-23T04:20:30.279Z,0
2016-09-23T04:21:29.525Z,0
2016-09-23T04:22:30.095Z,0
2016-09-23T04:23:29.425Z,0
2016-09-23T04:24:29.666Z,0
2016-09-23T04:25:29.939Z,0
2016-09-23T04:26:30.093Z,0
2016-09-23T04:27:29.221Z,0
2016-09-23T04:28:29.491Z,0
2016-09-23T04:29:30.037Z,0
2016-09-23T04:30:29.947Z,0
2016-09-23T04:31:29.344Z,0
2016-09-23T04:32:29.597Z,0
2016-09-23T04:33:29.564Z,0
2016-09-23T04:34:29.507Z,0
2016-09-23T04:35:30.006Z,0
2016-09-23T04:36:29.919Z,0
2016-09-23T04:37:29.455Z,0
2016-09-23T04:38:30.019Z,0
2016-09-23T04:39:29.258Z,0
2016-09-23T04:40:29.218Z,0
2016-09-23T04:41:29.366Z,0
2016-09-23T04:42:28.791Z,0
2016-09-23T04:43:29.254Z,0
2016-09-23T04:44:29.286Z,0
2016-09-23T04:45:29.267Z,0
2016-09-23T04:46:28.923Z,0
2016-09-23T04:47:29.172Z,0
2016-09-23T04:48:29.556Z,0
2016-09-23T04:49:29.074Z,0
2016-09-23T04:50:28.734Z,0
2016-09-23T04:51:28.667Z,0
2016-09-23T04:52:28.793Z,0
2016-09-23T04:53:28.462Z,0
2016-09-23T04:54:28.920Z,0
2016-09-23T04:55:28.809Z,0
2016-09-23T04:56:27.799Z,0
2016-09-23T04:57:28.904Z,0
2016-09-23T04:58:29.141Z,0
2016-09-23T04:59:28.592Z,0
2016-09-23T05:00:28.262Z,0
2016-09-23T05:01:28.188Z,0
2016-09-23T05:02:28.138Z,0
2016-09-23T05:03:28.637Z,0
2016-09-23T05:04:28.028Z,0
2016-09-23T05:05:28.288Z,0
2016-09-23T05:06:27.315Z,0
2016-09-23T05:07:28.094Z,0
2016-09-23T05:08:27.839Z,0
2016-09-23T05:09:27.987Z,0
2016-09-23T05:10:27.698Z,0
2016-09-23T05:11:27.997Z,0
2016-09-23T05:12:27.657Z,0
2016-09-23T05:13:27.907Z,0
2016-09-23T05:14:27.257Z,0
2016-09-23T05:15:27.759Z,0
2016-09-23T05:16:27.764Z,0
2016-09-23T05:17:27.411Z,0
2016-09-23T05:18:27.656Z,0
2016-09-23T05:19:27.274Z,0
2016-09-23T05:20:27.771Z,0
2016-09-23T05:21:27.195Z,0
2016-09-23T05:22:26.833Z,0
2016-09-23T05:23:27.119Z,0
2016-09-23T05:24:27.427Z,0
2016-09-23T05:25:27.243Z,0
2016-09-23T05:26:27.539Z,0
2016-09-23T05:27:26.902Z,0
2016-09-23T05:28:27.082Z,0
2016-09-23T05:29:27.132Z,0
2016-09-23T05:30:26.755Z,0
2016-09-23T05:31:26.986Z,0
2016-09-23T05:32:26.040Z,0
2016-09-23T05:33:26.208Z,0
2016-09-23T05:34:26.560Z,0
2016-09-23T05:35:26.513Z,0
2016-09-23T05:36:41.240Z,0
2016-09-23T05:37:26.430Z,0
2016-09-23T05:38:26.292Z,0
2016-09-23T05:39:26.626Z,0
2016-09-23T05:40:25.957Z,0
2016-09-23T05:41:26.541Z,0
2016-09-23T05:42:26.233Z,0
2016-09-23T05:43:25.513Z,0
2016-09-23T05:44:26.097Z,0
2016-09-23T05:45:26.347Z,0
2016-09-23T05:46:26.372Z,0
2016-09-23T05:47:25.985Z,0
2016-09-23T05:48:25.297Z,0
2016-09-23T05:49:25.759Z,0
2016-09-23T05:50:26.079Z,0
2016-09-23T05:51:26.278Z,5
2016-09-23T05:52:26.007Z,5
2016-09-23T05:53:25.836Z,5
2016-09-23T05:54:25.564Z,5
2016-09-23T05:55:25.285Z,5
2016-09-23T05:56:26.075Z,5
2016-09-23T05:57:25.439Z,5
2016-09-23T05:58:25.158Z,5
2016-09-23T05:59:25.319Z,5
2016-09-23T06:00:24.973Z,5
2016-09-23T06:01:25.561Z,5
2016-09-23T06:02:25.494Z,5
2016-09-23T06:03:25.134Z,5
2016-09-23T06:04:24.795Z,5
2016-09-23T06:05:24.440Z,5
2016-09-23T06:06:24.975Z,5
2016-09-23T06:07:24.947Z,5
2016-09-23T06:08:25.102Z,5
2016-09-23T06:09:24.528Z,5
2016-09-23T06:10:24.484Z,5
2016-09-23T06:11:24.742Z,5
2016-09-23T06:12:24.599Z,5
2016-09-23T06:13:25.170Z,5
2016-09-23T06:14:24.983Z,5
2016-09-23T06:15:24.532Z,5
2016-09-23T06:16:24.175Z,5
2016-09-23T06:17:24.954Z,5
2016-09-23T06:18:24.107Z,5
2016-09-23T06:19:38.965Z,10
2016-09-23T06:20:24.667Z,10
2016-09-23T06:21:24.603Z,10
2016-09-23T06:22:23.890Z,10
2016-09-23T06:23:24.166Z,10
2016-09-23T06:24:24.355Z,10
2016-09-23T06:25:24.446Z,10
2016-09-23T06:26:23.397Z,10
2016-09-23T06:27:23.663Z,10
2016-09-23T06:28:23.921Z,10
2016-09-23T06:29:23.544Z,10
2016-09-23T06:30:24.127Z,10
2016-09-23T06:31:24.071Z,10
2016-09-23T06:32:23.423Z,10
2016-09-23T06:33:23.881Z,10
2016-09-23T06:34:23.861Z,10
2016-09-23T06:35:23.869Z,10
2016-09-23T06:36:23.528Z,10
2016-09-23T06:37:23.779Z,10
2016-09-23T06:38:23.429Z,10
2016-09-23T06:39:23.481Z,15
2016-09-23T06:40:22.987Z,15
2016-09-23T06:41:23.491Z,15
2016-09-23T06:42:22.981Z,15
2016-09-23T06:43:23.222Z,15
2016-09-23T06:44:23.130Z,15
2016-09-23T06:45:23.096Z,15
2016-09-23T06:46:23.553Z,15
2016-09-23T06:47:23.306Z,15
2016-09-23T06:48:22.914Z,15
2016-09-23T06:49:22.953Z,15
2016-09-23T06:50:23.036Z,15
2016-09-23T06:51:23.118Z,20
2016-09-23T06:52:22.517Z,20
2016-09-23T06:53:22.715Z,20
2016-09-23T06:54:22.935Z,20
2016-09-23T06:55:22.588Z,20
2016-09-23T06:56:22.535Z,20
2016-09-23T06:57:22.394Z,20
2016-09-23T06:58:22.982Z,20
2016-09-23T06:59:22.713Z,20
2016-09-23T07:00:22.866Z,20
2016-09-23T07:01:22.029Z,20
2016-09-23T07:02:21.982Z,20
2016-09-23T07:03:21.884Z,20
2016-09-23T07:04:22.480Z,25
2016-09-23T07:05:22.634Z,25
2016-09-23T07:06:22.370Z,25
2016-09-23T07:07:22.341Z,25
2016-09-23T07:08:21.988Z,25
2016-09-23T07:09:21.315Z,25
2016-09-23T07:10:22.176Z,25
2016-09-23T07:11:22.638Z,25
2016-09-23T07:12:22.111Z,25
2016-09-23T07:13:22.091Z,25
2016-09-23T07:14:21.676Z,25
2016-09-23T07:15:22.366Z,25
2016-09-23T07:16:21.596Z,25
2016-09-23T07:17:21.748Z,25
2016-09-23T07:18:21.796Z,25
2016-09-23T07:19:21.129Z,25
2016-09-23T07:20:21.587Z,25
2016-09-23T07:21:21.661Z,25
2016-09-23T07:22:21.728Z,25
2016-09-23T07:23:21.249Z,25
2016-09-23T07:24:21.426Z,25
2016-09-23T07:25:21.658Z,25
2016-09-23T07:26:21.447Z,25
2016-09-23T07:27:21.377Z,30
2016-09-23T07:28:20.720Z,30
2016-09-23T07:29:21.758Z,30
2016-09-23T07:30:20.941Z,30
2016-09-23T07:31:20.901Z,30
2016-09-23T07:32:20.760Z,30
2016-09-23T07:33:21.072Z,30
2016-09-23T07:34:21.122Z,30
2016-09-23T07:35:21.312Z,30
2016-09-23T07:36:20.030Z,30
2016-09-23T07:37:21.191Z,30
2016-09-23T07:38:21.717Z,30
2016-09-23T07:39:20.476Z,30
2016-09-23T07:40:20.457Z,30
2016-09-23T07:41:20.928Z,30
2016-09-23T07:42:21.357Z,30
2016-09-23T07:43:21.214Z,35
2016-09-23T07:44:20.646Z,35
2016-09-23T07:45:20.718Z,40
2016-09-23T07:46:20.146Z,40
2016-09-23T07:47:20.382Z,45
2016-09-23T07:48:20.413Z,50
2016-09-23T07:49:20.407Z,50
2016-09-23T07:50:19.965Z,55
2016-09-23T07:51:20.418Z,60
2016-09-23T07:52:20.420Z,60
2016-09-23T07:53:20.226Z,65
2016-09-23T07:54:19.774Z,65
2016-09-23T07:55:19.457Z,65
2016-09-23T07:56:20.017Z,65
2016-09-23T07:57:19.964Z,65
2016-09-23T07:58:19.254Z,65
2016-09-23T07:59:20.161Z,70
2016-09-23T08:00:19.815Z,70
2016-09-23T08:01:19.799Z,70
2016-09-23T08:02:20.721Z,70
2016-09-23T08:03:20.199Z,70
2016-09-23T08:04:19.219Z,70
2016-09-23T08:05:19.294Z,70
2016-09-23T08:06:20.752Z,75
2016-09-23T08:07:18.863Z,75
2016-09-23T08:08:19.213Z,75
2016-09-23T08:09:18.996Z,80
2016-09-23T08:10:19.098Z,80
2016-09-23T08:11:18.993Z,80
2016-09-23T08:12:18.917Z,80
2016-09-23T08:13:18.558Z,80
2016-09-23T08:14:18.822Z,80
2016-09-23T08:15:19.090Z,80
2016-09-23T08:16:18.910Z,85
2016-09-23T08:17:19.195Z,85
2016-09-23T08:18:19.158Z,85
2016-09-23T08:19:18.836Z,85
2016-09-23T08:20:18.211Z,85
2016-09-23T08:21:18.569Z,85
2016-09-23T08:22:18.758Z,85
2016-09-23T08:23:18.405Z,85
2016-09-23T08:24:18.680Z,85
2016-09-23T08:25:18.391Z,85
2016-09-23T08:26:17.928Z,85
2016-09-23T08:27:18.707Z,90
2016-09-23T08:28:18.466Z,90
2016-09-23T08:29:18.414Z,90
2016-09-23T08:30:18.609Z,80
2016-09-23T08:31:18.564Z,60
2016-09-23T08:32:18.373Z,60
2016-09-23T08:33:17.989Z,50
2016-09-23T08:34:17.992Z,55
2016-09-23T08:35:18.393Z,50
2016-09-23T08:36:18.701Z,55
2016-09-23T08:37:18.880Z,55
2016-09-23T08:38:17.770Z,60
2016-09-23T08:39:18.005Z,60
2016-09-23T08:40:18.323Z,60
2016-09-23T08:41:17.863Z,70
2016-09-23T08:42:18.163Z,65
2016-09-23T08:43:18.008Z,85
2016-09-23T08:44:19.040Z,85
2016-09-23T08:45:17.782Z,80
2016-09-23T08:46:17.762Z,85
2016-09-23T08:47:17.647Z,80
2016-09-23T08:48:17.946Z,75
2016-09-23T08:49:18.065Z,85
2016-09-23T08:50:17.307Z,85
2016-09-23T08:51:17.362Z,85
2016-09-23T08:52:17.373Z,85
2016-09-23T08:53:17.251Z,85
2016-09-23T08:54:17.381Z,85
2016-09-23T08:55:16.284Z,85
2016-09-23T08:56:17.119Z,85
2016-09-23T08:57:17.096Z,85
2016-09-23T08:58:16.511Z,85
2016-09-23T08:59:17.457Z,85
2016-09-23T09:00:16.838Z,90
2016-09-23T09:01:17.298Z,90
2016-09-23T09:02:17.130Z,95
2016-09-23T09:03:16.965Z,95
2016-09-23T09:04:17.062Z,95
2016-09-23T09:05:16.108Z,95
2016-09-23T09:06:16.957Z,95
2016-09-23T09:07:16.637Z,95
2016-09-23T09:08:16.139Z,95
2016-09-23T09:09:15.910Z,90
2016-09-23T09:10:16.538Z,80
2016-09-23T09:11:31.039Z,90
2016-09-23T09:12:15.505Z,95
2016-09-23T09:13:15.414Z,100
2016-09-23T09:14:16.334Z,100
2016-09-23T09:15:16.478Z,100
2016-09-23T09:16:15.872Z,100
2016-09-23T09:17:15.881Z,105
2016-09-23T09:18:16.310Z,105
2016-09-23T09:19:15.406Z,105
2016-09-23T09:20:16.238Z,105
2016-09-23T09:21:15.949Z,105
2016-09-23T09:22:15.823Z,105
2016-09-23T09:23:18.444Z,105
2016-09-23T09:24:15.808Z,105
2016-09-23T09:25:15.723Z,115
2016-09-23T09:26:15.329Z,125
2016-09-23T09:27:15.411Z,120
2016-09-23T09:28:15.549Z,95
2016-09-23T09:29:15.616Z,85
2016-09-23T09:30:15.612Z,80
2016-09-23T09:31:15.536Z,85
2016-09-23T09:32:14.820Z,80
2016-09-23T09:33:15.665Z,70
2016-09-23T09:34:15.595Z,60
2016-09-23T09:35:15.478Z,60
2016-09-23T09:36:15.082Z,60
2016-09-23T09:37:14.966Z,60
2016-09-23T09:38:14.862Z,60
2016-09-23T09:39:15.130Z,65
2016-09-23T09:40:14.782Z,65
2016-09-23T09:41:14.755Z,70
2016-09-23T09:42:14.697Z,75
2016-09-23T09:43:15.184Z,80
2016-09-23T09:44:15.192Z,75
2016-09-23T09:45:14.758Z,75
2016-09-23T09:46:14.239Z,75
2016-09-23T09:47:14.443Z,70
2016-09-23T09:48:14.724Z,90
2016-09-23T09:49:14.358Z,85
2016-09-23T09:50:14.057Z,60
2016-09-23T09:51:14.268Z,60
2016-09-23T09:52:14.956Z,90
2016-09-23T09:53:14.237Z,70
2016-09-23T09:54:14.116Z,90
2016-09-23T09:55:14.383Z,100
2016-09-23T09:56:14.328Z,100
2016-09-23T09:57:14.044Z,105
2016-09-23T09:58:14.251Z,105
2016-09-23T09:59:14.107Z,75
2016-09-23T10:00:14.388Z,70
2016-09-23T10:01:13.998Z,65
2016-09-23T10:02:13.744Z,65
2016-09-23T10:03:13.731Z,75
2016-09-23T10:04:13.566Z,95
2016-09-23T10:05:13.618Z,75
2016-09-23T10:06:13.888Z,80
2016-09-23T10:07:13.549Z,85
2016-09-23T10:08:13.807Z,95
2016-09-23T10:09:13.757Z,65
2016-09-23T10:10:13.750Z,60
2016-09-23T10:11:13.330Z,60
2016-09-23T10:12:13.511Z,60
2016-09-23T10:13:13.356Z,65
2016-09-23T10:14:13.541Z,80
2016-09-23T10:15:13.384Z,65
2016-09-23T10:16:12.822Z,65
2016-09-23T10:17:12.989Z,65
2016-09-23T10:18:13.472Z,70
2016-09-23T10:19:13.478Z,65
2016-09-23T10:20:13.443Z,60
2016-09-23T10:21:13.203Z,65
2016-09-23T10:22:13.550Z,65
2016-09-23T10:23:13.102Z,70
2016-09-23T10:24:12.756Z,65
2016-09-23T10:25:13.046Z,55
2016-09-23T10:26:12.967Z,55
2016-09-23T10:27:12.352Z,60
2016-09-23T10:28:13.082Z,60
2016-09-23T10:29:13.112Z,60
2016-09-23T10:30:13.241Z,90
2016-09-23T10:31:12.441Z,65
2016-09-23T10:32:12.693Z,90
2016-09-23T10:33:12.748Z,70
2016-09-23T10:34:12.509Z,75
2016-09-23T10:35:12.774Z,80
2016-09-23T10:36:12.665Z,85
2016-09-23T10:37:12.232Z,85
2016-09-23T10:38:12.179Z,85
2016-09-23T10:39:11.774Z,85
2016-09-23T10:40:12.184Z,85
2016-09-23T10:41:12.288Z,85
2016-09-23T10:42:11.960Z,85
2016-09-23T10:43:12.192Z,90
2016-09-23T10:44:12.199Z,55
2016-09-23T10:45:11.488Z,95
2016-09-23T10:46:11.786Z,100
2016-09-23T10:47:13.256Z,100
2016-09-23T10:48:11.954Z,100
2016-09-23T10:49:12.140Z,90
2016-09-23T10:50:12.174Z,90
2016-09-23T10:51:10.928Z,85
2016-09-23T10:52:11.521Z,90
2016-09-23T10:53:11.858Z,100
2016-09-23T10:54:11.700Z,100
2016-09-23T10:55:11.648Z,95
2016-09-23T10:56:11.015Z,100
2016-09-23T10:57:11.266Z,100
2016-09-23T10:58:10.951Z,100
2016-09-23T10:59:11.379Z,100
2016-09-23T11:00:11.023Z,100
2016-09-23T11:01:11.100Z,100
2016-09-23T11:02:11.274Z,60
2016-09-23T11:03:11.379Z,60
2016-09-23T11:04:10.951Z,80
2016-09-23T11:05:10.628Z,90
2016-09-23T11:06:11.380Z,75
2016-09-23T11:07:10.835Z,100
2016-09-23T11:08:10.644Z,105
2016-09-23T11:09:11.230Z,115
2016-09-23T11:10:10.391Z,110
2016-09-23T11:11:10.396Z,90
2016-09-23T11:12:10.659Z,70
2016-09-23T11:13:10.552Z,100
2016-09-23T11:14:10.503Z,55
2016-09-23T11:15:10.153Z,55
2016-09-23T11:16:10.415Z,60
2016-09-23T11:17:10.852Z,60
2016-09-23T11:18:10.010Z,110
2016-09-23T11:19:10.732Z,105
2016-09-23T11:20:10.427Z,60
2016-09-23T11:21:10.173Z,55
2016-09-23T11:22:10.135Z,60
2016-09-23T11:23:10.093Z,55
2016-09-23T11:24:10.337Z,65
2016-09-23T11:25:09.980Z,110
2016-09-23T11:26:09.953Z,95
2016-09-23T11:27:10.252Z,60
2016-09-23T11:28:09.238Z,60
2016-09-23T11:29:09.823Z,70
2016-09-23T11:30:09.458Z,60
2016-09-23T11:31:10.019Z,60
2016-09-23T11:32:10.373Z,90
2016-09-23T11:33:09.673Z,80
2016-09-23T11:34:09.876Z,110
2016-09-23T11:35:09.893Z,95
2016-09-23T11:36:10.077Z,55
2016-09-23T11:37:09.468Z,50
2016-09-23T11:38:09.386Z,50
2016-09-23T11:39:09.544Z,45
2016-09-23T11:40:09.541Z,50
2016-09-23T11:41:10.043Z,95
2016-09-23T11:42:09.199Z,70
2016-09-23T11:43:09.526Z,55
2016-09-23T11:44:08.975Z,90
2016-09-23T11:45:09.452Z,75
2016-09-23T11:46:09.696Z,90
2016-09-23T11:47:09.613Z,85
2016-09-23T11:48:09.259Z,105
2016-09-23T11:49:08.616Z,110
2016-09-23T11:50:08.897Z,90
2016-09-23T11:51:08.553Z,105
2016-09-23T11:52:09.078Z,75
2016-09-23T11:53:08.854Z,105
2016-09-23T11:54:09.099Z,80
2016-09-23T11:55:09.293Z,55
2016-09-23T11:56:08.650Z,55
2016-09-23T11:57:08.570Z,55
2016-09-23T11:58:08.805Z,80
2016-09-23T11:59:08.496Z,105
2016-09-23T12:00:08.944Z,70
2016-09-23T12:01:08.598Z,105
2016-09-23T12:02:08.008Z,105
2016-09-23T12:03:08.473Z,120
2016-09-23T12:04:08.588Z,120
2016-09-23T12:05:08.403Z,105
2016-09-23T12:06:08.149Z,85
2016-09-23T12:07:08.139Z,85
2016-09-23T12:08:07.773Z,100
2016-09-23T12:09:08.425Z,110
2016-09-23T12:10:08.678Z,110
2016-09-23T12:11:08.519Z,110
2016-09-23T12:12:07.944Z,130
2016-09-23T12:13:07.918Z,105
2016-09-23T12:14:08.117Z,100
2016-09-23T12:15:07.692Z,105
2016-09-23T12:16:07.771Z,100
2016-09-23T12:17:08.383Z,90
2016-09-23T12:18:07.622Z,105
2016-09-23T12:19:08.161Z,120
2016-09-23T12:20:07.924Z,120
2016-09-23T12:21:07.498Z,115
2016-09-23T12:22:07.751Z,110
2016-09-23T12:23:07.777Z,105
2016-09-23T12:24:09.461Z,105
2016-09-23T12:25:08.234Z,105
2016-09-23T12:26:07.312Z,100
2016-09-23T12:27:07.680Z,100
2016-09-23T12:28:06.770Z,100
2016-09-23T12:29:07.348Z,100
2016-09-23T12:30:07.409Z,100
2016-09-23T12:31:08.439Z,100
2016-09-23T12:32:07.292Z,75
2016-09-23T12:33:07.507Z,95
2016-09-23T12:34:07.271Z,90
2016-09-23T12:35:07.234Z,70
2016-09-23T12:36:07.338Z,90
2016-09-23T12:37:06.857Z,65
2016-09-23T12:38:07.204Z,65
2016-09-23T12:39:07.024Z,70
2016-09-23T12:40:06.862Z,65
2016-09-23T12:41:07.145Z,70
2016-09-23T12:42:06.898Z,75
2016-09-23T12:43:06.558Z,100
2016-09-23T12:44:06.330Z,100
2016-09-23T12:45:06.367Z,95
2016-09-23T12:46:06.471Z,95
2016-09-23T12:47:06.685Z,95
2016-09-23T12:48:07.028Z,55
2016-09-23T12:49:05.970Z,50
2016-09-23T12:50:06.828Z,50
2016-09-23T12:51:06.749Z,45
2016-09-23T12:52:06.342Z,45
2016-09-23T12:53:06.590Z,40
2016-09-23T12:54:06.333Z,40
2016-09-23T12:55:05.984Z,40
2016-09-23T12:56:06.446Z,40
2016-09-23T12:57:06.251Z,40
2016-09-23T12:58:05.854Z,40
2016-09-23T12:59:04.911Z,40
2016-09-23T13:00:05.774Z,40
2016-09-23T13:01:06.032Z,40
2016-09-23T13:02:06.130Z,40
2016-09-23T13:03:05.692Z,40
2016-09-23T13:04:05.903Z,40
2016-09-23T13:05:05.890Z,40
2016-09-23T13:06:05.933Z,40
2016-09-23T13:07:04.886Z,40
2016-09-23T13:08:05.456Z,45
2016-09-23T13:09:06.537Z,45
2016-09-23T13:10:05.379Z,45
2016-09-23T13:11:05.843Z,45
2016-09-23T13:12:05.053Z,50
2016-09-23T13:13:05.177Z,50
2016-09-23T13:14:05.468Z,50
2016-09-23T13:15:04.895Z,50
2016-09-23T13:16:05.724Z,55
2016-09-23T13:17:04.723Z,55
2016-09-23T13:18:04.675Z,60
2016-09-23T13:19:04.937Z,60
2016-09-23T13:20:04.896Z,60
2016-09-23T13:21:05.071Z,60
2016-09-23T13:22:05.053Z,60
2016-09-23T13:23:04.995Z,55
2016-09-23T13:24:05.021Z,55
2016-09-23T13:25:05.192Z,55
2016-09-23T13:26:04.931Z,50
2016-09-23T13:27:04.893Z,50
2016-09-23T13:28:04.591Z,50
2016-09-23T13:29:04.516Z,55
2016-09-23T13:30:04.649Z,55
2016-09-23T13:31:04.170Z,65
2016-09-23T13:32:04.573Z,60
2016-09-23T13:33:04.392Z,60
2016-09-23T13:34:03.969Z,65
2016-09-23T13:35:04.571Z,100
2016-09-23T13:36:04.510Z,105
2016-09-23T13:37:04.134Z,105
2016-09-23T13:38:04.645Z,110
2016-09-23T13:39:04.572Z,110
2016-09-23T13:40:03.976Z,70
2016-09-23T13:41:04.025Z,110
2016-09-23T13:42:03.801Z,115
2016-09-23T13:43:03.930Z,110
2016-09-23T13:44:03.844Z,105
2016-09-23T13:45:04.150Z,100
2016-09-23T13:46:03.913Z,95
2016-09-23T13:47:03.450Z,100
2016-09-23T13:48:03.938Z,95
2016-09-23T13:49:03.760Z,95
2016-09-23T13:50:04.132Z,45
2016-09-23T13:51:03.805Z,40
2016-09-23T13:52:03.513Z,40
2016-09-23T13:53:03.456Z,40
2016-09-23T13:54:03.478Z,40
2016-09-23T13:55:04.287Z,35
2016-09-23T13:56:03.041Z,35
2016-09-23T13:57:03.812Z,40
2016-09-23T13:58:03.279Z,45
2016-09-23T13:59:03.759Z,45
2016-09-23T14:00:03.139Z,50
2016-09-23T14:01:03.207Z,50
2016-09-23T14:02:03.270Z,50
2016-09-23T14:03:03.593Z,50
2016-09-23T14:04:03.288Z,45
2016-09-23T14:05:03.601Z,45
2016-09-23T14:06:02.445Z,45
2016-09-23T14:07:02.373Z,50
2016-09-23T14:08:02.762Z,50
2016-09-23T14:09:03.020Z,50
2016-09-23T14:10:02.649Z,45
2016-09-23T14:11:02.645Z,45
2016-09-23T14:12:02.862Z,50
2016-09-23T14:13:02.842Z,55
2016-09-23T14:14:02.508Z,55
2016-09-23T14:15:02.808Z,50
2016-09-23T14:16:02.456Z,50
2016-09-23T14:17:02.647Z,50
2016-09-23T14:18:02.700Z,55
2016-09-23T14:19:02.469Z,60
2016-09-23T14:20:02.577Z,60
2016-09-23T14:21:02.381Z,65
2016-09-23T14:22:01.862Z,75
2016-09-23T14:23:02.190Z,100
2016-09-23T14:24:02.452Z,105
2016-09-23T14:25:01.721Z,80